sensor_id;sensor_type;location;lat;lon;timestamp;pressure;altitude;pressure_sealevel;temperature;humidity
43681;BME280;29281;50.356;30.894;2022-07-29T00:00:43;100507.39;;;20.50;58.17
43681;BME280;29281;50.356;30.894;2022-07-29T00:01:49;100508.36;;;20.41;58.64
43681;BME280;29281;50.356;30.894;2022-07-29T00:02:54;100507.38;;;20.24;58.90
43681;BME280;29281;50.356;30.894;2022-07-29T00:03:57;100509.00;;;20.17;59.14
43681;BME280;29281;50.356;30.894;2022-07-29T00:05:02;100516.27;;;20.16;59.14
43681;BME280;29281;50.356;30.894;2022-07-29T00:06:11;100518.59;;;20.11;59.44
43681;BME280;29281;50.356;30.894;2022-07-29T00:07:15;100519.36;;;20.03;59.62
43681;BME280;29281;50.356;30.894;2022-07-29T00:08:20;100526.14;;;20.08;59.67
43681;BME280;29281;50.356;30.894;2022-07-29T00:09:25;100517.85;;;20.01;60.06
43681;BME280;29281;50.356;30.894;2022-07-29T00:10:33;100522.13;;;20.12;59.54
43681;BME280;29281;50.356;30.894;2022-07-29T00:11:37;100527.53;;;20.12;59.75
43681;BME280;29281;50.356;30.894;2022-07-29T00:12:41;100520.90;;;20.06;60.17
43681;BME280;29281;50.356;30.894;2022-07-29T00:13:44;100519.59;;;20.10;60.03
43681;BME280;29281;50.356;30.894;2022-07-29T00:14:49;100521.91;;;20.05;60.39
43681;BME280;29281;50.356;30.894;2022-07-29T00:15:56;100521.05;;;20.05;60.37
43681;BME280;29281;50.356;30.894;2022-07-29T00:17:01;100519.90;;;20.07;60.75
43681;BME280;29281;50.356;30.894;2022-07-29T00:18:05;100521.28;;;20.11;60.22
43681;BME280;29281;50.356;30.894;2022-07-29T00:19:12;100525.14;;;20.09;60.36
43681;BME280;29281;50.356;30.894;2022-07-29T00:20:18;100520.36;;;20.02;60.62
43681;BME280;29281;50.356;30.894;2022-07-29T00:21:22;100528.09;;;19.97;60.76
43681;BME280;29281;50.356;30.894;2022-07-29T00:22:26;100523.11;;;19.85;61.25
43681;BME280;29281;50.356;30.894;2022-07-29T00:23:33;100523.17;;;19.75;61.74
43681;BME280;29281;50.356;30.894;2022-07-29T00:24:43;100531.75;;;19.71;62.00
43681;BME280;29281;50.356;30.894;2022-07-29T00:25:46;100530.72;;;19.72;62.03
43681;BME280;29281;50.356;30.894;2022-07-29T00:26:51;100529.20;;;19.69;62.30
43681;BME280;29281;50.356;30.894;2022-07-29T00:53:33;100521.27;;;19.85;62.22
43681;BME280;29281;50.356;30.894;2022-07-29T00:54:40;100521.41;;;19.84;62.25
43681;BME280;29281;50.356;30.894;2022-07-29T00:55:45;100520.41;;;19.85;62.13
43681;BME280;29281;50.356;30.894;2022-07-29T00:56:49;100510.84;;;19.90;61.54
43681;BME280;29281;50.356;30.894;2022-07-29T00:57:53;100518.08;;;19.90;61.32
43681;BME280;29281;50.356;30.894;2022-07-29T00:58:58;100508.84;;;19.92;61.44
43681;BME280;29281;50.356;30.894;2022-07-29T01:00:08;100512.08;;;19.96;61.27
43681;BME280;29281;50.356;30.894;2022-07-29T01:01:15;100520.16;;;19.96;61.28
43681;BME280;29281;50.356;30.894;2022-07-29T01:02:18;100511.37;;;19.94;61.48
43681;BME280;29281;50.356;30.894;2022-07-29T01:03:21;100514.69;;;19.88;61.70
43681;BME280;29281;50.356;30.894;2022-07-29T01:04:25;100523.47;;;19.90;61.77
43681;BME280;29281;50.356;30.894;2022-07-29T01:05:29;100522.47;;;19.91;61.74
43681;BME280;29281;50.356;30.894;2022-07-29T01:06:36;100522.70;;;19.97;61.50
43681;BME280;29281;50.356;30.894;2022-07-29T01:07:42;100520.70;;;19.99;61.54
43681;BME280;29281;50.356;30.894;2022-07-29T01:08:49;100523.24;;;20.01;61.21
43681;BME280;29281;50.356;30.894;2022-07-29T01:10:00;100523.91;;;20.03;61.13
43681;BME280;29281;50.356;30.894;2022-07-29T01:11:04;100510.77;;;20.00;61.57
43681;BME280;29281;50.356;30.894;2022-07-29T01:12:08;100511.42;;;20.02;61.37
43681;BME280;29281;50.356;30.894;2022-07-29T01:13:14;100517.00;;;20.00;61.59
43681;BME280;29281;50.356;30.894;2022-07-29T01:14:26;100517.77;;;19.93;61.98
43681;BME280;29281;50.356;30.894;2022-07-29T01:15:42;100514.84;;;19.86;62.35
43681;BME280;29281;50.356;30.894;2022-07-29T01:16:53;100520.88;;;19.80;62.62
43681;BME280;29281;50.356;30.894;2022-07-29T01:18:02;100520.56;;;19.83;62.57
43681;BME280;29281;50.356;30.894;2022-07-29T01:21:50;100516.77;;;19.94;62.30
43681;BME280;29281;50.356;30.894;2022-07-29T01:24:11;100524.02;;;19.93;62.13
43681;BME280;29281;50.356;30.894;2022-07-29T01:29:55;100526.16;;;19.90;61.72
43681;BME280;29281;50.356;30.894;2022-07-29T01:31:02;100525.47;;;19.88;61.49
43681;BME280;29281;50.356;30.894;2022-07-29T01:33:31;100531.86;;;19.87;62.27
43681;BME280;29281;50.356;30.894;2022-07-29T01:35:19;100526.17;;;19.72;62.04
43681;BME280;29281;50.356;30.894;2022-07-29T01:36:31;100531.20;;;19.67;61.77
43681;BME280;29281;50.356;30.894;2022-07-29T01:37:43;100532.50;;;19.63;61.72
43681;BME280;29281;50.356;30.894;2022-07-29T01:38:57;100530.75;;;19.54;62.32
43681;BME280;29281;50.356;30.894;2022-07-29T01:40:03;100530.47;;;19.47;62.04
43681;BME280;29281;50.356;30.894;2022-07-29T01:41:12;100523.98;;;19.40;62.23
43681;BME280;29281;50.356;30.894;2022-07-29T01:43:41;100526.06;;;19.28;62.85
43681;BME280;29281;50.356;30.894;2022-07-29T01:45:14;100522.45;;;19.20;63.02
43681;BME280;29281;50.356;30.894;2022-07-29T01:46:34;100525.58;;;19.15;63.29
43681;BME280;29281;50.356;30.894;2022-07-29T01:47:39;100526.02;;;18.93;64.01
43681;BME280;29281;50.356;30.894;2022-07-29T01:48:47;100525.54;;;18.97;63.90
43681;BME280;29281;50.356;30.894;2022-07-29T01:49:54;100530.84;;;18.89;64.17
43681;BME280;29281;50.356;30.894;2022-07-29T01:51:10;100530.02;;;18.79;64.47
43681;BME280;29281;50.356;30.894;2022-07-29T01:52:21;100527.16;;;18.90;64.04
43681;BME280;29281;50.356;30.894;2022-07-29T01:53:42;100534.09;;;18.93;63.97
43681;BME280;29281;50.356;30.894;2022-07-29T01:54:53;100529.08;;;18.98;63.75
43681;BME280;29281;50.356;30.894;2022-07-29T01:56:01;100533.47;;;18.99;64.10
43681;BME280;29281;50.356;30.894;2022-07-29T01:57:08;100530.48;;;19.02;64.01
43681;BME280;29281;50.356;30.894;2022-07-29T01:58:14;100528.05;;;19.09;63.61
43681;BME280;29281;50.356;30.894;2022-07-29T01:59:23;100533.66;;;19.15;63.25
43681;BME280;29281;50.356;30.894;2022-07-29T02:00:31;100528.42;;;19.14;63.16
43681;BME280;29281;50.356;30.894;2022-07-29T02:01:39;100536.64;;;19.12;63.29
43681;BME280;29281;50.356;30.894;2022-07-29T02:02:46;100532.41;;;19.10;63.00
43681;BME280;29281;50.356;30.894;2022-07-29T02:03:53;100537.79;;;19.10;62.94
43681;BME280;29281;50.356;30.894;2022-07-29T02:05:00;100533.32;;;19.01;63.00
43681;BME280;29281;50.356;30.894;2022-07-29T02:06:06;100531.03;;;19.06;62.83
43681;BME280;29281;50.356;30.894;2022-07-29T02:07:15;100531.73;;;19.08;63.01
43681;BME280;29281;50.356;30.894;2022-07-29T02:08:19;100532.88;;;19.05;63.13
43681;BME280;29281;50.356;30.894;2022-07-29T02:09:25;100540.61;;;18.90;63.58
43681;BME280;29281;50.356;30.894;2022-07-29T02:10:34;100538.91;;;18.89;63.73
43681;BME280;29281;50.356;30.894;2022-07-29T02:11:40;100541.48;;;18.81;64.03
43681;BME280;29281;50.356;30.894;2022-07-29T02:12:46;100541.53;;;18.72;64.50
43681;BME280;29281;50.356;30.894;2022-07-29T02:13:54;100543.95;;;18.65;64.48
43681;BME280;29281;50.356;30.894;2022-07-29T02:15:01;100544.42;;;18.60;64.32
43681;BME280;29281;50.356;30.894;2022-07-29T02:16:07;100543.97;;;18.55;64.41
43681;BME280;29281;50.356;30.894;2022-07-29T02:17:13;100547.37;;;18.57;64.35
43681;BME280;29281;50.356;30.894;2022-07-29T02:18:20;100532.36;;;18.55;64.48
43681;BME280;29281;50.356;30.894;2022-07-29T02:19:25;100536.61;;;18.57;64.51
43681;BME280;29281;50.356;30.894;2022-07-29T02:20:31;100544.28;;;18.62;64.37
43681;BME280;29281;50.356;30.894;2022-07-29T02:21:37;100535.87;;;18.75;63.97
43681;BME280;29281;50.356;30.894;2022-07-29T02:22:44;100549.88;;;18.78;63.83
43681;BME280;29281;50.356;30.894;2022-07-29T02:23:49;100549.41;;;18.83;63.63
43681;BME280;29281;50.356;30.894;2022-07-29T02:24:58;100544.59;;;18.86;63.79
43681;BME280;29281;50.356;30.894;2022-07-29T02:26:03;100550.67;;;18.88;63.51
43681;BME280;29281;50.356;30.894;2022-07-29T02:27:07;100551.75;;;18.95;63.47
43681;BME280;29281;50.356;30.894;2022-07-29T02:28:17;100551.75;;;18.95;63.38
43681;BME280;29281;50.356;30.894;2022-07-29T02:29:25;100554.36;;;18.87;63.81
43681;BME280;29281;50.356;30.894;2022-07-29T02:30:30;100557.75;;;18.89;63.80
43681;BME280;29281;50.356;30.894;2022-07-29T02:31:36;100551.25;;;18.82;63.96
43681;BME280;29281;50.356;30.894;2022-07-29T02:32:41;100551.86;;;18.76;64.29
43681;BME280;29281;50.356;30.894;2022-07-29T02:33:46;100551.16;;;18.74;64.27
43681;BME280;29281;50.356;30.894;2022-07-29T02:34:51;100555.84;;;18.72;64.40
43681;BME280;29281;50.356;30.894;2022-07-29T02:35:54;100558.81;;;18.69;64.52
43681;BME280;29281;50.356;30.894;2022-07-29T02:36:59;100558.81;;;18.69;64.44
43681;BME280;29281;50.356;30.894;2022-07-29T02:38:08;100555.56;;;18.66;64.48
43681;BME280;29281;50.356;30.894;2022-07-29T02:39:31;100553.20;;;18.63;64.71
43681;BME280;29281;50.356;30.894;2022-07-29T02:40:37;100559.71;;;18.60;64.78
43681;BME280;29281;50.356;30.894;2022-07-29T02:41:49;100559.11;;;18.66;64.76
43681;BME280;29281;50.356;30.894;2022-07-29T02:42:59;100557.41;;;18.65;64.92
43681;BME280;29281;50.356;30.894;2022-07-29T02:44:17;100557.68;;;18.72;64.81
43681;BME280;29281;50.356;30.894;2022-07-29T02:45:23;100557.25;;;18.76;64.57
43681;BME280;29281;50.356;30.894;2022-07-29T02:46:30;100557.10;;;18.78;64.66
43681;BME280;29281;50.356;30.894;2022-07-29T02:47:36;100561.63;;;18.77;64.51
43681;BME280;29281;50.356;30.894;2022-07-29T02:48:48;100550.11;;;18.85;64.36
43681;BME280;29281;50.356;30.894;2022-07-29T02:50:15;100556.91;;;18.89;64.27
43681;BME280;29281;50.356;30.894;2022-07-29T02:51:07;100558.98;;;18.95;64.09
43681;BME280;29281;50.356;30.894;2022-07-29T02:52:19;100566.03;;;19.06;63.57
43681;BME280;29281;50.356;30.894;2022-07-29T02:53:36;100549.52;;;19.18;63.45
43681;BME280;29281;50.356;30.894;2022-07-29T02:54:46;100552.91;;;19.20;63.21
43681;BME280;29281;50.356;30.894;2022-07-29T02:56:01;100551.63;;;19.24;62.63
43681;BME280;29281;50.356;30.894;2022-07-29T02:57:30;100555.53;;;19.30;62.25
43681;BME280;29281;50.356;30.894;2022-07-29T02:58:41;100555.94;;;19.35;62.67
43681;BME280;29281;50.356;30.894;2022-07-29T02:59:48;100553.16;;;19.45;62.21
43681;BME280;29281;50.356;30.894;2022-07-29T03:00:55;100557.84;;;19.52;61.60
43681;BME280;29281;50.356;30.894;2022-07-29T03:02:02;100566.13;;;19.59;61.58
43681;BME280;29281;50.356;30.894;2022-07-29T03:03:16;100559.45;;;19.63;61.50
43681;BME280;29281;50.356;30.894;2022-07-29T03:04:25;100556.91;;;19.61;61.48
43681;BME280;29281;50.356;30.894;2022-07-29T03:05:32;100559.84;;;19.68;61.62
43681;BME280;29281;50.356;30.894;2022-07-29T03:06:41;100556.66;;;19.73;61.28
43681;BME280;29281;50.356;30.894;2022-07-29T03:07:54;100563.30;;;19.78;60.73
43681;BME280;29281;50.356;30.894;2022-07-29T03:09:00;100563.54;;;19.85;61.01
43681;BME280;29281;50.356;30.894;2022-07-29T03:10:04;100564.14;;;19.96;59.93
43681;BME280;29281;50.356;30.894;2022-07-29T03:11:15;100562.83;;;20.00;59.50
43681;BME280;29281;50.356;30.894;2022-07-29T03:12:20;100565.42;;;20.10;59.06
43681;BME280;29281;50.356;30.894;2022-07-29T03:13:27;100557.08;;;20.21;58.73
43681;BME280;29281;50.356;30.894;2022-07-29T03:14:31;100566.94;;;20.30;58.19
43681;BME280;29281;50.356;30.894;2022-07-29T03:15:38;100561.20;;;20.33;57.93
43681;BME280;29281;50.356;30.894;2022-07-29T03:16:43;100563.63;;;20.36;57.73
43681;BME280;29281;50.356;30.894;2022-07-29T03:17:49;100567.59;;;20.32;57.92
43681;BME280;29281;50.356;30.894;2022-07-29T03:18:54;100567.44;;;20.34;57.79
43681;BME280;29281;50.356;30.894;2022-07-29T03:19:59;100566.59;;;20.33;57.90
43681;BME280;29281;50.356;30.894;2022-07-29T03:21:03;100566.17;;;20.20;58.10
43681;BME280;29281;50.356;30.894;2022-07-29T03:22:14;100568.13;;;20.10;58.40
43681;BME280;29281;50.356;30.894;2022-07-29T03:23:21;100558.64;;;20.06;58.36
43681;BME280;29281;50.356;30.894;2022-07-29T03:24:29;100563.68;;;20.01;58.48
43681;BME280;29281;50.356;30.894;2022-07-29T03:25:35;100563.19;;;20.06;58.24
43681;BME280;29281;50.356;30.894;2022-07-29T03:26:40;100565.13;;;20.13;57.90
43681;BME280;29281;50.356;30.894;2022-07-29T03:27:44;100558.08;;;20.20;58.12
43681;BME280;29281;50.356;30.894;2022-07-29T03:28:47;100562.70;;;20.28;57.99
43681;BME280;29281;50.356;30.894;2022-07-29T03:29:52;100561.62;;;20.39;57.50
43681;BME280;29281;50.356;30.894;2022-07-29T03:30:58;100573.80;;;20.43;57.44
43681;BME280;29281;50.356;30.894;2022-07-29T03:32:05;100567.74;;;20.49;56.97
43681;BME280;29281;50.356;30.894;2022-07-29T03:33:10;100565.05;;;20.49;56.94
43681;BME280;29281;50.356;30.894;2022-07-29T03:34:15;100566.27;;;20.54;57.15
43681;BME280;29281;50.356;30.894;2022-07-29T03:35:20;100566.80;;;20.58;57.04
43681;BME280;29281;50.356;30.894;2022-07-29T03:36:25;100574.24;;;20.64;56.70
43681;BME280;29281;50.356;30.894;2022-07-29T03:37:31;100579.33;;;20.67;56.43
43681;BME280;29281;50.356;30.894;2022-07-29T03:38:42;100569.37;;;20.67;56.86
43681;BME280;29281;50.356;30.894;2022-07-29T03:39:49;100574.09;;;20.65;57.04
43681;BME280;29281;50.356;30.894;2022-07-29T03:40:58;100576.16;;;20.71;56.84
43681;BME280;29281;50.356;30.894;2022-07-29T03:42:05;100573.14;;;20.75;56.88
43681;BME280;29281;50.356;30.894;2022-07-29T03:43:15;100576.19;;;20.80;56.87
43681;BME280;29281;50.356;30.894;2022-07-29T03:44:20;100576.56;;;20.85;56.74
43681;BME280;29281;50.356;30.894;2022-07-29T03:45:26;100575.58;;;20.94;56.33
43681;BME280;29281;50.356;30.894;2022-07-29T03:46:35;100571.40;;;20.99;56.61
43681;BME280;29281;50.356;30.894;2022-07-29T03:47:52;100575.42;;;20.95;56.51
43681;BME280;29281;50.356;30.894;2022-07-29T03:48:59;100578.66;;;20.99;55.87
43681;BME280;29281;50.356;30.894;2022-07-29T03:50:10;100579.66;;;20.98;55.59
43681;BME280;29281;50.356;30.894;2022-07-29T03:51:16;100585.91;;;20.98;55.43
43681;BME280;29281;50.356;30.894;2022-07-29T03:52:22;100576.62;;;20.93;56.08
43681;BME280;29281;50.356;30.894;2022-07-29T03:53:26;100580.34;;;21.00;55.51
43681;BME280;29281;50.356;30.894;2022-07-29T03:54:31;100578.02;;;21.05;55.71
43681;BME280;29281;50.356;30.894;2022-07-29T03:55:42;100583.26;;;21.06;56.05
43681;BME280;29281;50.356;30.894;2022-07-29T03:56:48;100573.78;;;21.02;56.15
43681;BME280;29281;50.356;30.894;2022-07-29T03:57:53;100572.41;;;20.98;55.93
43681;BME280;29281;50.356;30.894;2022-07-29T03:58:59;100577.48;;;21.01;55.69
43681;BME280;29281;50.356;30.894;2022-07-29T04:00:06;100571.72;;;20.96;55.97
43681;BME280;29281;50.356;30.894;2022-07-29T04:01:10;100580.03;;;21.03;55.83
43681;BME280;29281;50.356;30.894;2022-07-29T04:02:16;100575.81;;;21.08;56.10
43681;BME280;29281;50.356;30.894;2022-07-29T04:03:21;100584.60;;;21.11;56.29
43681;BME280;29281;50.356;30.894;2022-07-29T04:04:25;100583.59;;;21.12;55.75
43681;BME280;29281;50.356;30.894;2022-07-29T04:05:34;100585.66;;;21.18;55.97
43681;BME280;29281;50.356;30.894;2022-07-29T04:06:46;100585.59;;;21.35;56.11
43681;BME280;29281;50.356;30.894;2022-07-29T04:07:50;100592.31;;;21.31;55.67
43681;BME280;29281;50.356;30.894;2022-07-29T04:08:54;100592.52;;;21.38;55.85
43681;BME280;29281;50.356;30.894;2022-07-29T04:10:02;100590.31;;;21.41;55.82
43681;BME280;29281;50.356;30.894;2022-07-29T04:11:06;100593.05;;;21.50;55.71
43681;BME280;29281;50.356;30.894;2022-07-29T04:12:10;100589.87;;;21.62;55.12
43681;BME280;29281;50.356;30.894;2022-07-29T04:13:13;100589.22;;;21.68;55.18
43681;BME280;29281;50.356;30.894;2022-07-29T04:14:21;100595.47;;;21.69;55.17
43681;BME280;29281;50.356;30.894;2022-07-29T04:15:25;100592.61;;;21.79;54.63
43681;BME280;29281;50.356;30.894;2022-07-29T04:16:33;100590.58;;;21.81;54.40
43681;BME280;29281;50.356;30.894;2022-07-29T04:17:37;100588.88;;;21.88;54.41
43681;BME280;29281;50.356;30.894;2022-07-29T04:18:42;100589.89;;;21.87;54.55
43681;BME280;29281;50.356;30.894;2022-07-29T04:19:45;100596.20;;;22.03;54.19
43681;BME280;29281;50.356;30.894;2022-07-29T04:20:53;100595.35;;;22.19;54.03
43681;BME280;29281;50.356;30.894;2022-07-29T04:21:57;100592.66;;;22.27;54.04
43681;BME280;29281;50.356;30.894;2022-07-29T04:23:01;100604.98;;;22.38;54.03
43681;BME280;29281;50.356;30.894;2022-07-29T04:24:07;100597.52;;;22.48;54.13
43681;BME280;29281;50.356;30.894;2022-07-29T04:25:11;100598.91;;;22.44;54.17
43681;BME280;29281;50.356;30.894;2022-07-29T04:26:17;100599.38;;;22.48;54.05
43681;BME280;29281;50.356;30.894;2022-07-29T04:27:26;100606.13;;;22.68;53.45
43681;BME280;29281;50.356;30.894;2022-07-29T04:28:33;100589.76;;;23.17;52.11
43681;BME280;29281;50.356;30.894;2022-07-29T04:29:36;100595.24;;;23.70;49.86
43681;BME280;29281;50.356;30.894;2022-07-29T04:30:41;100608.34;;;23.90;48.75
43681;BME280;29281;50.356;30.894;2022-07-29T04:31:45;100614.79;;;23.89;47.85
43681;BME280;29281;50.356;30.894;2022-07-29T04:32:48;100607.02;;;24.31;47.08
43681;BME280;29281;50.356;30.894;2022-07-29T04:33:52;100619.57;;;24.84;45.91
43681;BME280;29281;50.356;30.894;2022-07-29T04:34:57;100626.17;;;26.27;41.72
43681;BME280;29281;50.356;30.894;2022-07-29T04:36:02;100633.97;;;28.29;38.14
43681;BME280;29281;50.356;30.894;2022-07-29T04:37:07;100646.55;;;29.74;34.83
43681;BME280;29281;50.356;30.894;2022-07-29T04:38:10;100659.09;;;30.58;33.37
43681;BME280;29281;50.356;30.894;2022-07-29T04:39:16;100668.55;;;31.66;31.89
43681;BME280;29281;50.356;30.894;2022-07-29T04:40:23;100663.61;;;32.46;30.61
43681;BME280;29281;50.356;30.894;2022-07-29T04:41:28;100670.93;;;33.46;28.92
43681;BME280;29281;50.356;30.894;2022-07-29T04:42:34;100670.93;;;33.46;28.92
43681;BME280;29281;50.356;30.894;2022-07-29T04:43:39;100673.81;;;34.19;28.38
43681;BME280;29281;50.356;30.894;2022-07-29T04:44:43;100679.00;;;34.78;27.58
43681;BME280;29281;50.356;30.894;2022-07-29T04:45:47;100680.89;;;35.11;27.36
43681;BME280;29281;50.356;30.894;2022-07-29T04:46:53;100689.30;;;35.38;26.24
43681;BME280;29281;50.356;30.894;2022-07-29T04:47:58;100692.77;;;35.93;25.68
43681;BME280;29281;50.356;30.894;2022-07-29T04:49:12;100689.52;;;36.50;24.92
43681;BME280;29281;50.356;30.894;2022-07-29T04:50:17;100688.80;;;36.65;25.13
43681;BME280;29281;50.356;30.894;2022-07-29T04:51:22;100682.91;;;36.88;24.93
43681;BME280;29281;50.356;30.894;2022-07-29T04:52:27;100685.16;;;36.91;24.41
43681;BME280;29281;50.356;30.894;2022-07-29T04:53:45;100685.56;;;37.15;24.52
43681;BME280;29281;50.356;30.894;2022-07-29T04:54:49;100687.58;;;37.20;23.92
43681;BME280;29281;50.356;30.894;2022-07-29T04:55:52;100684.39;;;36.69;24.49
43681;BME280;29281;50.356;30.894;2022-07-29T04:56:56;100686.30;;;36.95;24.15
43681;BME280;29281;50.356;30.894;2022-07-29T04:58:00;100686.47;;;36.84;24.05
43681;BME280;29281;50.356;30.894;2022-07-29T04:59:04;100683.48;;;36.90;23.69
43681;BME280;29281;50.356;30.894;2022-07-29T05:01:24;100682.03;;;37.20;23.62
43681;BME280;29281;50.356;30.894;2022-07-29T05:02:27;100686.20;;;37.22;23.42
43681;BME280;29281;50.356;30.894;2022-07-29T05:03:31;100686.52;;;36.89;23.43
43681;BME280;29281;50.356;30.894;2022-07-29T05:04:34;100686.33;;;37.43;23.38
43681;BME280;29281;50.356;30.894;2022-07-29T05:05:38;100679.31;;;37.30;23.35
43681;BME280;29281;50.356;30.894;2022-07-29T05:06:42;100680.55;;;37.59;23.25
43681;BME280;29281;50.356;30.894;2022-07-29T05:07:46;100686.02;;;37.39;23.50
43681;BME280;29281;50.356;30.894;2022-07-29T05:08:49;100692.10;;;38.09;22.93
43681;BME280;29281;50.356;30.894;2022-07-29T05:09:53;100688.02;;;38.52;22.90
43681;BME280;29281;50.356;30.894;2022-07-29T05:10:58;100683.48;;;37.95;23.54
43681;BME280;29281;50.356;30.894;2022-07-29T05:12:05;100678.05;;;37.53;24.07
43681;BME280;29281;50.356;30.894;2022-07-29T05:13:09;100682.86;;;36.83;24.44
43681;BME280;29281;50.356;30.894;2022-07-29T05:14:12;100631.55;;;37.08;24.06
43681;BME280;29281;50.356;30.894;2022-07-29T05:15:25;100679.91;;;37.37;23.84
43681;BME280;29281;50.356;30.894;2022-07-29T05:16:29;100682.16;;;37.40;23.80
43681;BME280;29281;50.356;30.894;2022-07-29T05:17:32;100683.98;;;37.72;23.66
43681;BME280;29281;50.356;30.894;2022-07-29T05:18:38;100684.85;;;37.92;23.74
43681;BME280;29281;50.356;30.894;2022-07-29T05:19:42;100682.45;;;38.16;23.58
43681;BME280;29281;50.356;30.894;2022-07-29T05:20:47;100688.50;;;38.03;23.65
43681;BME280;29281;50.356;30.894;2022-07-29T05:21:51;100690.30;;;38.65;22.98
43681;BME280;29281;50.356;30.894;2022-07-29T05:22:57;100695.50;;;39.22;22.56
43681;BME280;29281;50.356;30.894;2022-07-29T05:24:01;100693.56;;;38.97;22.49
43681;BME280;29281;50.356;30.894;2022-07-29T05:25:06;100706.70;;;39.77;21.98
43681;BME280;29281;50.356;30.894;2022-07-29T05:26:15;100704.83;;;39.62;22.01
43681;BME280;29281;50.356;30.894;2022-07-29T05:27:19;100693.80;;;39.31;22.67
43681;BME280;29281;50.356;30.894;2022-07-29T05:28:23;100696.34;;;38.97;22.62
43681;BME280;29281;50.356;30.894;2022-07-29T05:29:33;100707.61;;;39.62;21.76
43681;BME280;29281;50.356;30.894;2022-07-29T05:30:40;100701.02;;;39.37;21.91
43681;BME280;29281;50.356;30.894;2022-07-29T05:31:46;100700.87;;;39.78;21.47
43681;BME280;29281;50.356;30.894;2022-07-29T05:32:49;100704.63;;;40.07;20.69
43681;BME280;29281;50.356;30.894;2022-07-29T05:33:55;100702.89;;;39.62;21.00
43681;BME280;29281;50.356;30.894;2022-07-29T05:35:01;100699.25;;;39.72;20.99
43681;BME280;29281;50.356;30.894;2022-07-29T05:36:04;100712.38;;;40.16;20.61
43681;BME280;29281;50.356;30.894;2022-07-29T05:37:10;100710.07;;;40.33;20.29
43681;BME280;29281;50.356;30.894;2022-07-29T05:38:13;100705.80;;;40.01;20.64
43681;BME280;29281;50.356;30.894;2022-07-29T05:39:19;100712.20;;;39.97;20.55
43681;BME280;29281;50.356;30.894;2022-07-29T05:40:24;100719.89;;;40.15;20.03
43681;BME280;29281;50.356;30.894;2022-07-29T05:41:33;100717.58;;;40.27;20.57
43681;BME280;29281;50.356;30.894;2022-07-29T05:42:40;100714.28;;;39.61;20.56
43681;BME280;29281;50.356;30.894;2022-07-29T05:43:44;100713.36;;;39.86;20.60
43681;BME280;29281;50.356;30.894;2022-07-29T05:44:48;100722.55;;;39.81;19.99
43681;BME280;29281;50.356;30.894;2022-07-29T05:45:52;100716.84;;;39.47;20.46
43681;BME280;29281;50.356;30.894;2022-07-29T05:46:58;100714.73;;;39.88;20.21
43681;BME280;29281;50.356;30.894;2022-07-29T05:48:04;100717.94;;;40.16;20.14
43681;BME280;29281;50.356;30.894;2022-07-29T05:49:12;100717.00;;;39.76;20.26
43681;BME280;29281;50.356;30.894;2022-07-29T05:50:20;100707.69;;;40.06;20.04
43681;BME280;29281;50.356;30.894;2022-07-29T05:51:25;100712.66;;;40.14;19.92
43681;BME280;29281;50.356;30.894;2022-07-29T05:52:28;100715.30;;;40.39;19.82
43681;BME280;29281;50.356;30.894;2022-07-29T05:53:32;100721.14;;;40.38;19.57
43681;BME280;29281;50.356;30.894;2022-07-29T05:54:38;100720.89;;;39.75;19.97
43681;BME280;29281;50.356;30.894;2022-07-29T05:55:48;100706.82;;;39.56;20.38
43681;BME280;29281;50.356;30.894;2022-07-29T05:56:56;100703.52;;;39.29;20.63
43681;BME280;29281;50.356;30.894;2022-07-29T05:58:01;100709.06;;;39.44;20.66
43681;BME280;29281;50.356;30.894;2022-07-29T05:59:04;100714.87;;;40.17;20.03
43681;BME280;29281;50.356;30.894;2022-07-29T06:00:11;100709.44;;;39.92;20.26
43681;BME280;29281;50.356;30.894;2022-07-29T06:01:16;100714.25;;;40.25;20.01
43681;BME280;29281;50.356;30.894;2022-07-29T06:02:21;100706.14;;;40.73;19.60
43681;BME280;29281;50.356;30.894;2022-07-29T06:03:23;100712.00;;;40.66;19.76
43681;BME280;29281;50.356;30.894;2022-07-29T06:04:27;100719.65;;;40.51;19.66
43681;BME280;29281;50.356;30.894;2022-07-29T06:05:31;100720.45;;;40.56;19.20
43681;BME280;29281;50.356;30.894;2022-07-29T06:06:37;100719.20;;;40.78;19.23
43681;BME280;29281;50.356;30.894;2022-07-29T06:07:42;100715.04;;;39.82;19.79
43681;BME280;29281;50.356;30.894;2022-07-29T06:08:48;100703.55;;;37.55;22.26
43681;BME280;29281;50.356;30.894;2022-07-29T06:09:51;100699.31;;;37.00;22.86
43681;BME280;29281;50.356;30.894;2022-07-29T06:10:55;100704.22;;;36.88;23.19
43681;BME280;29281;50.356;30.894;2022-07-29T06:11:59;100696.22;;;36.59;23.72
43681;BME280;29281;50.356;30.894;2022-07-29T06:13:02;100698.78;;;36.12;24.12
43681;BME280;29281;50.356;30.894;2022-07-29T06:14:06;100696.95;;;35.96;24.75
43681;BME280;29281;50.356;30.894;2022-07-29T06:15:12;100688.27;;;35.66;25.07
43681;BME280;29281;50.356;30.894;2022-07-29T06:16:17;100692.13;;;35.43;24.21
43681;BME280;29281;50.356;30.894;2022-07-29T06:17:23;100695.03;;;35.75;24.04
43681;BME280;29281;50.356;30.894;2022-07-29T06:18:27;100690.58;;;35.95;24.23
43681;BME280;29281;50.356;30.894;2022-07-29T06:19:29;100689.17;;;35.28;24.31
43681;BME280;29281;50.356;30.894;2022-07-29T06:20:34;100685.31;;;35.50;24.52
43681;BME280;29281;50.356;30.894;2022-07-29T06:21:43;100680.92;;;34.77;25.10
43681;BME280;29281;50.356;30.894;2022-07-29T06:22:49;100686.82;;;35.03;25.09